createdAt,value
2023-02-01T00:01:18.422Z,73.61
2023-02-01T00:03:46.464Z,74.16
2023-02-01T00:06:14.404Z,74.05
2023-02-01T00:08:42.287Z,74.27
2023-02-01T00:11:12.394Z,74.31
2023-02-01T00:13:42.670Z,74.40
2023-02-01T00:16:13.866Z,74.29
2023-02-01T00:18:41.828Z,74.38
2023-02-01T00:21:13.566Z,74.26
2023-02-01T00:23:41.641Z,74.40
2023-02-01T00:26:16.421Z,74.23
2023-02-01T00:28:45.068Z,74.41
2023-02-01T00:31:13.118Z,74.37
2023-02-01T00:33:41.083Z,74.66
2023-02-01T00:36:15.046Z,74.80
2023-02-01T00:38:43.344Z,75.16
2023-02-01T00:41:20.475Z,75.32
2023-02-01T00:43:49.218Z,75.57
2023-02-01T00:46:19.975Z,75.71
2023-02-01T00:48:48.621Z,75.60
2023-02-01T00:51:22.328Z,75.76
2023-02-01T00:53:51.203Z,75.73
2023-02-01T00:56:19.379Z,75.79
2023-02-01T00:58:47.602Z,75.71
2023-02-01T01:01:21.983Z,76.05
2023-02-01T01:03:56.350Z,76.32
2023-02-01T01:06:29.999Z,76.51
2023-02-01T01:09:00.339Z,76.62
2023-02-01T01:11:31.712Z,76.54
2023-02-01T01:14:01.472Z,76.70
2023-02-01T01:16:31.760Z,76.93
2023-02-01T01:19:00.509Z,77.03
2023-02-01T01:21:29.235Z,76.96
2023-02-01T01:23:57.387Z,76.96
2023-02-01T01:26:28.073Z,77.01
2023-02-01T01:28:58.841Z,77.22
2023-02-01T01:31:29.358Z,77.06
2023-02-01T01:34:00.263Z,77.10
2023-02-01T01:36:29.685Z,77.16
2023-02-01T01:38:57.795Z,76.99
2023-02-01T01:41:29.849Z,77.13
2023-02-01T01:44:02.150Z,77.31
2023-02-01T01:46:34.412Z,77.31
2023-02-01T01:49:16.344Z,77.22
2023-02-01T01:52:03.515Z,77.26
2023-02-01T01:54:35.982Z,77.57
2023-02-01T01:57:20.188Z,77.50
2023-02-01T01:59:54.238Z,77.59
2023-02-01T02:02:22.414Z,78.04
2023-02-01T02:04:50.736Z,77.97
2023-02-01T02:07:24.239Z,78.06
2023-02-01T02:10:00.471Z,78.02
2023-02-01T02:12:29.863Z,77.87
2023-02-01T02:14:58.282Z,77.80
2023-02-01T02:17:48.035Z,77.87
2023-02-01T02:20:19.572Z,77.86
2023-02-01T02:22:56.733Z,77.83
2023-02-01T02:25:41.700Z,77.79
2023-02-01T02:28:31.589Z,77.79
2023-02-01T02:31:19.961Z,77.62
2023-02-01T02:34:06.531Z,77.66
2023-02-01T02:36:56.990Z,77.79
2023-02-01T02:39:45.079Z,77.93
2023-02-01T02:42:45.407Z,77.91
2023-02-01T02:45:41.744Z,78.01
2023-02-01T02:48:26.372Z,78.09
2023-02-01T02:51:32.452Z,78.03
2023-02-01T02:54:31.675Z,78.02
2023-02-01T02:57:21.822Z,78.17
2023-02-01T03:00:09.264Z,78.03
2023-02-01T03:02:58.150Z,78.10
2023-02-01T03:05:26.578Z,77.96
2023-02-01T03:07:59.645Z,77.85
2023-02-01T03:10:34.936Z,77.76
2023-02-01T03:13:10.027Z,77.89
2023-02-01T03:15:47.719Z,77.80
2023-02-01T03:18:29.558Z,77.83
2023-02-01T03:21:02.026Z,77.65
2023-02-01T03:23:35.252Z,77.88
2023-02-01T03:26:05.135Z,77.97
2023-02-01T03:28:35.778Z,78.24
2023-02-01T03:31:04.475Z,78.24
2023-02-01T03:33:33.136Z,78.09
2023-02-01T03:36:26.184Z,78.16
2023-02-01T03:39:03.278Z,77.91
2023-02-01T03:41:47.923Z,78.08
2023-02-01T03:44:25.107Z,78.26
2023-02-01T03:47:23.284Z,78.47
2023-02-01T03:49:55.963Z,78.46
2023-02-01T03:52:29.791Z,78.55
2023-02-01T03:54:59.999Z,78.66
2023-02-01T03:57:34.514Z,78.84
2023-02-01T04:00:12.828Z,78.66
2023-02-01T04:02:46.161Z,78.63
2023-02-01T04:05:14.601Z,78.88
2023-02-01T04:07:47.584Z,79.11
2023-02-01T04:10:18.674Z,79.09
2023-02-01T04:12:47.613Z,78.98
2023-02-01T04:15:15.601Z,78.78
2023-02-01T04:17:43.727Z,78.86
2023-02-01T04:20:12.512Z,78.98
2023-02-01T04:22:40.580Z,78.92
2023-02-01T04:25:09.117Z,78.96
2023-02-01T04:27:37.444Z,78.95
2023-02-01T04:30:06.331Z,79.03
2023-02-01T04:32:34.259Z,79.13
2023-02-01T04:35:02.267Z,79.39
2023-02-01T04:37:30.366Z,79.56
2023-02-01T04:39:58.304Z,79.48
2023-02-01T04:42:26.791Z,79.31
2023-02-01T04:44:54.789Z,79.57
2023-02-01T04:47:22.853Z,79.26
2023-02-01T04:49:51.021Z,79.35
2023-02-01T04:52:18.979Z,79.41
2023-02-01T04:54:46.930Z,79.25
2023-02-01T04:57:16.083Z,79.28
2023-02-01T04:59:44.050Z,79.22
2023-02-01T05:02:12.100Z,79.18
2023-02-01T05:04:40.175Z,79.19
2023-02-01T05:07:08.242Z,79.00
2023-02-01T05:09:36.234Z,78.93
2023-02-01T05:12:23.525Z,79.05
2023-02-01T05:14:51.615Z,79.04
2023-02-01T05:17:19.674Z,78.84
2023-02-01T05:19:47.641Z,78.69
2023-02-01T05:22:15.679Z,78.71
2023-02-01T05:24:43.670Z,78.72
2023-02-01T05:27:11.742Z,78.55
2023-02-01T05:29:39.810Z,78.63
2023-02-01T05:32:21.158Z,78.66
2023-02-01T05:34:51.114Z,78.53
2023-02-01T05:37:19.269Z,78.44
2023-02-01T05:39:47.371Z,78.39
2023-02-01T05:42:15.627Z,78.29
2023-02-01T05:44:43.803Z,78.03
2023-02-01T05:47:11.884Z,78.19
2023-02-01T05:49:39.947Z,78.19
2023-02-01T05:52:08.368Z,78.16
2023-02-01T05:54:36.340Z,78.35
2023-02-01T05:57:04.567Z,78.12
2023-02-01T05:59:32.553Z,78.08
2023-02-01T06:02:00.601Z,78.25
2023-02-01T06:04:28.580Z,78.23
2023-02-01T06:06:56.744Z,78.19
2023-02-01T06:09:24.730Z,77.91
2023-02-01T06:11:53.085Z,77.98
2023-02-01T06:14:21.571Z,78.26
2023-02-01T06:16:49.764Z,78.20
2023-02-01T06:19:17.741Z,78.30
2023-02-01T06:21:45.899Z,78.35
2023-02-01T06:24:14.423Z,78.35
2023-02-01T06:26:42.608Z,78.56
2023-02-01T06:29:11.838Z,78.75
2023-02-01T06:31:41.103Z,78.88
2023-02-01T06:34:09.621Z,78.95
2023-02-01T06:36:37.732Z,78.84
2023-02-01T06:39:06.317Z,78.68
2023-02-01T06:41:35.839Z,78.87
2023-02-01T06:44:03.938Z,78.85
2023-02-01T06:46:32.005Z,78.86
2023-02-01T06:49:00.294Z,78.72
2023-02-01T06:51:30.318Z,78.77
2023-02-01T06:53:59.421Z,78.85
2023-02-01T06:56:28.194Z,78.78
2023-02-01T06:58:56.218Z,78.54
2023-02-01T07:01:24.246Z,78.76
2023-02-01T07:03:52.607Z,78.59
2023-02-01T07:06:20.779Z,78.44
2023-02-01T07:08:49.275Z,78.27
2023-02-01T07:11:18.672Z,78.40
2023-02-01T07:13:47.317Z,78.35
2023-02-01T07:16:20.776Z,78.24
2023-02-01T07:18:52.386Z,78.32
2023-02-01T07:21:20.990Z,78.29
2023-02-01T07:23:49.349Z,78.52
2023-02-01T07:26:17.730Z,78.36
2023-02-01T07:28:45.884Z,78.52
2023-02-01T07:31:16.816Z,78.22
2023-02-01T07:33:45.136Z,78.04
2023-02-01T07:36:15.846Z,78.21
2023-02-01T07:38:44.505Z,78.15
2023-02-01T07:41:12.612Z,78.11
2023-02-01T07:43:40.972Z,78.35
2023-02-01T07:46:10.935Z,78.39
2023-02-01T07:48:39.375Z,78.35
2023-02-01T07:51:13.263Z,78.35
2023-02-01T07:53:41.949Z,78.29
2023-02-01T07:56:15.331Z,78.45
2023-02-01T07:58:44.301Z,78.43
2023-02-01T08:01:25.516Z,78.40
2023-02-01T08:03:58.250Z,78.19
2023-02-01T08:06:27.255Z,78.10
2023-02-01T08:08:55.737Z,78.03
2023-02-01T08:11:26.274Z,77.98
2023-02-01T08:13:55.698Z,78.01
2023-02-01T08:16:24.578Z,77.92
2023-02-01T08:18:55.236Z,77.81
2023-02-01T08:21:27.165Z,77.83
2023-02-01T08:23:55.265Z,78.02
2023-02-01T08:26:26.009Z,77.84
2023-02-01T08:28:59.506Z,77.83
2023-02-01T08:31:29.724Z,77.69
2023-02-01T08:34:00.460Z,77.56
2023-02-01T08:36:30.695Z,77.61
2023-02-01T08:38:58.967Z,77.47
2023-02-01T08:41:30.644Z,77.33
2023-02-01T08:43:59.317Z,77.19
2023-02-01T08:46:28.016Z,76.94
2023-02-01T08:48:56.673Z,76.88
2023-02-01T08:51:25.450Z,76.41
2023-02-01T08:53:53.555Z,76.40
2023-02-01T08:56:22.160Z,76.27
2023-02-01T08:58:50.369Z,76.19
2023-02-01T09:01:19.100Z,76.09
2023-02-01T09:03:47.327Z,76.02
2023-02-01T09:06:17.033Z,75.90
2023-02-01T09:08:45.509Z,75.46
2023-02-01T09:11:20.577Z,75.44
2023-02-01T09:13:49.341Z,75.38
2023-02-01T09:16:17.980Z,75.14
2023-02-01T09:19:01.617Z,74.69
2023-02-01T09:21:34.439Z,74.61
2023-02-01T09:24:02.571Z,74.41
2023-02-01T09:26:32.522Z,74.02
2023-02-01T09:29:02.059Z,73.74
2023-02-01T09:31:31.875Z,73.35
2023-02-01T09:34:00.024Z,72.93
2023-02-01T09:36:30.206Z,72.71
2023-02-01T09:39:00.895Z,72.54
2023-02-01T09:41:56.348Z,72.36
2023-02-01T09:44:44.370Z,72.20
2023-02-01T09:47:16.162Z,72.39
2023-02-01T09:49:55.915Z,72.54
2023-02-01T09:52:32.447Z,72.60
2023-02-01T09:55:06.728Z,72.57
2023-02-01T09:57:44.524Z,72.55
2023-02-01T10:00:26.967Z,72.79
2023-02-01T10:02:56.998Z,72.73
2023-02-01T10:05:51.178Z,72.68
2023-02-01T10:08:31.482Z,72.98
2023-02-01T10:11:14.601Z,73.25
2023-02-01T10:13:52.955Z,73.03
2023-02-01T10:16:32.881Z,72.95
2023-02-01T10:19:14.735Z,73.18
2023-02-01T10:22:09.834Z,72.92
2023-02-01T10:24:48.966Z,73.22
2023-02-01T10:27:26.870Z,73.13
2023-02-01T10:30:11.424Z,73.18
2023-02-01T10:32:42.674Z,73.12
2023-02-01T10:35:16.274Z,73.09
2023-02-01T10:37:46.848Z,73.01
2023-02-01T10:40:28.104Z,73.08
2023-02-01T10:43:00.368Z,72.90
2023-02-01T10:45:34.959Z,72.79
2023-02-01T10:48:05.310Z,72.75
2023-02-01T10:50:56.501Z,72.46
2023-02-01T10:53:41.061Z,72.30
2023-02-01T10:56:11.597Z,72.11
2023-02-01T10:58:48.548Z,72.06
2023-02-01T11:01:21.165Z,72.16
2023-02-01T11:03:58.614Z,71.90
2023-02-01T11:06:35.411Z,72.08
2023-02-01T11:09:09.318Z,72.19
2023-02-01T11:11:49.617Z,72.07
2023-02-01T11:14:19.684Z,71.65
2023-02-01T11:17:14.653Z,71.38
2023-02-01T11:19:59.046Z,71.32
2023-02-01T11:22:30.545Z,71.51
2023-02-01T11:25:02.606Z,71.68
2023-02-01T11:27:34.761Z,71.67
2023-02-01T11:30:07.175Z,72.03
2023-02-01T11:32:35.693Z,72.36
2023-02-01T11:35:06.832Z,72.37
2023-02-01T11:37:39.105Z,72.53
2023-02-01T11:40:19.448Z,72.76
2023-02-01T11:43:26.149Z,72.87
2023-02-01T11:46:00.443Z,73.02
2023-02-01T11:48:33.956Z,73.23
2023-02-01T11:51:28.540Z,73.73
2023-02-01T11:54:25.893Z,74.17
2023-02-01T11:57:14.549Z,74.57
2023-02-01T12:00:05.866Z,74.92
2023-02-01T12:03:13.431Z,75.18
2023-02-01T12:06:06.837Z,75.17
2023-02-01T12:08:45.391Z,74.90
2023-02-01T12:11:51.390Z,74.36
2023-02-01T12:14:25.730Z,73.92
2023-02-01T12:17:12.314Z,73.71
2023-02-01T12:20:22.210Z,73.64
2023-02-01T12:23:21.186Z,73.77
2023-02-01T12:26:20.655Z,73.89
2023-02-01T12:29:00.919Z,74.13
2023-02-01T12:31:51.024Z,74.13
2023-02-01T12:34:48.774Z,74.16
2023-02-01T12:37:47.155Z,74.46
2023-02-01T12:40:34.403Z,74.79
2023-02-01T12:43:10.758Z,74.99
2023-02-01T12:45:49.605Z,75.18
2023-02-01T12:48:37.190Z,75.25
2023-02-01T12:51:15.523Z,75.42
2023-02-01T12:53:52.840Z,75.51
2023-02-01T12:56:31.819Z,75.57
2023-02-01T12:59:05.559Z,76.08
2023-02-01T13:01:42.073Z,76.30
2023-02-01T13:04:42.129Z,76.00
2023-02-01T13:07:19.400Z,75.95
2023-02-01T13:10:01.100Z,75.28
2023-02-01T13:12:46.121Z,75.04
2023-02-01T13:15:17.611Z,74.46
2023-02-01T13:17:48.625Z,74.44
2023-02-01T13:20:47.332Z,74.42
2023-02-01T13:23:25.081Z,74.14
2023-02-01T13:25:54.525Z,74.00
2023-02-01T13:28:36.307Z,73.74
2023-02-01T13:31:26.446Z,73.46
2023-02-01T13:34:16.396Z,73.54
2023-02-01T13:37:01.277Z,73.71
2023-02-01T13:39:41.411Z,74.36
2023-02-01T13:42:23.856Z,74.83
2023-02-01T13:44:59.004Z,74.91
2023-02-01T13:47:30.346Z,75.12
2023-02-01T13:50:13.425Z,75.47
2023-02-01T13:52:45.591Z,75.94
2023-02-01T13:55:27.223Z,76.15
2023-02-01T13:58:18.987Z,76.77
2023-02-01T14:00:49.119Z,76.53
2023-02-01T14:03:22.795Z,76.60
2023-02-01T14:05:50.978Z,76.67
2023-02-01T14:08:38.583Z,76.85
2023-02-01T14:11:07.175Z,76.53
2023-02-01T14:13:40.360Z,76.41
2023-02-01T14:16:17.614Z,76.22
2023-02-01T14:18:47.593Z,76.34
2023-02-01T14:21:24.552Z,76.42
2023-02-01T14:23:58.792Z,76.61
2023-02-01T14:26:36.239Z,76.35
2023-02-01T14:29:32.002Z,75.63
2023-02-01T14:32:21.497Z,75.55
2023-02-01T14:34:49.910Z,75.61
2023-02-01T14:37:18.117Z,75.40
2023-02-01T14:39:46.151Z,75.13
2023-02-01T14:42:38.530Z,74.96
2023-02-01T14:45:28.946Z,75.03
2023-02-01T14:48:06.456Z,75.05
2023-02-01T14:50:43.267Z,75.06
2023-02-01T14:53:11.537Z,75.29
2023-02-01T14:55:48.609Z,75.28
2023-02-01T14:58:42.422Z,75.18
2023-02-01T15:01:31.404Z,75.04
2023-02-01T15:04:03.053Z,74.98
2023-02-01T15:06:52.700Z,75.02
2023-02-01T15:09:52.532Z,74.97
2023-02-01T15:12:28.182Z,74.93
2023-02-01T15:15:16.287Z,74.88
2023-02-01T15:18:01.183Z,74.13
2023-02-01T15:20:34.069Z,74.06
2023-02-01T15:23:17.097Z,74.21
2023-02-01T15:25:47.648Z,74.34
2023-02-01T15:28:17.555Z,74.42
2023-02-01T15:31:24.249Z,74.59
2023-02-01T15:34:03.409Z,74.92
2023-02-01T15:36:33.855Z,74.91
2023-02-01T15:39:36.996Z,74.85
2023-02-01T15:42:20.004Z,74.98
2023-02-01T15:44:58.533Z,74.59
2023-02-01T15:47:34.360Z,74.53
2023-02-01T15:50:05.753Z,74.42
2023-02-01T15:52:41.722Z,74.07
2023-02-01T15:55:22.540Z,74.15
2023-02-01T15:57:53.420Z,73.85
2023-02-01T16:00:29.591Z,74.03
2023-02-01T16:03:07.312Z,73.80
2023-02-01T16:05:40.055Z,73.94
2023-02-01T16:08:14.574Z,74.17
2023-02-01T16:13:28.875Z,74.67
2023-02-01T16:15:57.273Z,75.21
2023-02-01T16:18:25.323Z,74.94
2023-02-01T16:20:53.370Z,75.16
2023-02-01T16:23:21.770Z,75.65
2023-02-01T16:25:49.942Z,75.97
2023-02-01T16:28:18.118Z,76.12
2023-02-01T16:30:46.257Z,76.55
2023-02-01T16:33:20.708Z,76.78
2023-02-01T16:35:50.105Z,76.96
2023-02-01T16:38:22.666Z,77.15
2023-02-01T16:40:50.976Z,77.12
2023-02-01T16:43:22.524Z,77.08
2023-02-01T16:45:53.629Z,77.00
2023-02-01T16:48:30.957Z,76.68
2023-02-01T16:51:02.391Z,76.59
2023-02-01T16:53:34.575Z,76.77
2023-02-01T16:56:35.026Z,76.78
2023-02-01T16:59:03.486Z,76.94
2023-02-01T17:01:31.537Z,77.06
2023-02-01T17:03:59.767Z,77.07
2023-02-01T17:06:31.158Z,77.14
2023-02-01T17:09:00.555Z,77.01
2023-02-01T17:11:31.011Z,77.18
2023-02-01T17:14:19.843Z,76.94
2023-02-01T17:16:50.438Z,76.76
2023-02-01T17:19:24.662Z,76.88
2023-02-01T17:21:56.903Z,76.90
2023-02-01T17:24:46.492Z,76.83
2023-02-01T17:27:17.409Z,77.36
2023-02-01T17:29:47.243Z,77.62
2023-02-01T17:32:26.288Z,77.35
2023-02-01T17:34:54.416Z,77.27
2023-02-01T17:37:31.669Z,77.45
2023-02-01T17:40:00.398Z,77.52
2023-02-01T17:42:30.506Z,77.47
2023-02-01T17:45:02.753Z,77.27
2023-02-01T17:47:31.014Z,77.37
2023-02-01T17:49:59.237Z,77.43
2023-02-01T17:52:27.453Z,77.31
2023-02-01T17:54:55.528Z,77.26
2023-02-01T17:57:23.597Z,77.19
2023-02-01T17:59:51.664Z,77.26
2023-02-01T18:02:22.557Z,77.22
2023-02-01T18:04:52.019Z,77.13
2023-02-01T18:07:20.179Z,77.30
2023-02-01T18:09:48.211Z,77.19
2023-02-01T18:12:23.711Z,77.12
2023-02-01T18:14:51.883Z,77.23
2023-02-01T18:17:20.243Z,77.17
2023-02-01T18:19:48.723Z,77.05
2023-02-01T18:22:20.694Z,77.05
2023-02-01T18:24:48.865Z,76.74
2023-02-01T18:27:16.876Z,76.84
2023-02-01T18:29:44.900Z,76.85
2023-02-01T18:32:15.810Z,76.83
2023-02-01T18:34:43.906Z,76.90
2023-02-01T18:37:13.312Z,76.51
2023-02-01T18:39:41.499Z,76.54
2023-02-01T18:42:11.296Z,76.49
2023-02-01T18:44:39.358Z,76.55
2023-02-01T18:47:07.557Z,76.30
2023-02-01T18:49:36.868Z,76.27
2023-02-01T18:52:06.762Z,76.32
2023-02-01T18:54:34.919Z,76.11
2023-02-01T18:57:03.552Z,76.21
2023-02-01T18:59:31.776Z,76.12
2023-02-01T19:01:59.849Z,75.99
2023-02-01T19:04:27.830Z,76.08
2023-02-01T19:06:56.089Z,75.78
2023-02-01T19:09:24.167Z,75.80
2023-02-01T19:11:52.161Z,75.68
2023-02-01T19:14:20.301Z,75.49
2023-02-01T19:16:48.293Z,75.51
2023-02-01T19:19:16.449Z,75.54
2023-02-01T19:21:44.414Z,75.77
2023-02-01T19:24:12.481Z,75.80
2023-02-01T19:26:41.894Z,75.91
2023-02-01T19:29:10.930Z,76.07
2023-02-01T19:31:39.088Z,76.21
2023-02-01T19:34:07.849Z,76.12
2023-02-01T19:36:41.559Z,76.23
2023-02-01T19:39:10.760Z,76.18
2023-02-01T19:41:38.906Z,76.42
2023-02-01T19:44:07.148Z,76.41
2023-02-01T19:46:35.228Z,76.57
2023-02-01T19:49:03.425Z,76.67
2023-02-01T19:51:31.423Z,76.72
2023-02-01T19:53:59.469Z,76.86
2023-02-01T19:56:27.434Z,76.72
2023-02-01T19:58:55.522Z,76.70
2023-02-01T20:01:22.738Z,76.73
2023-02-01T20:03:50.880Z,76.55
2023-02-01T20:06:19.023Z,76.60
2023-02-01T20:08:48.301Z,76.55
2023-02-01T20:11:16.671Z,76.61
2023-02-01T20:13:44.705Z,76.83
2023-02-01T20:16:12.870Z,76.76
2023-02-01T20:18:41.052Z,76.66
2023-02-01T20:21:09.200Z,76.71
2023-02-01T20:23:37.403Z,76.79
2023-02-01T20:26:08.591Z,76.77
2023-02-01T20:28:36.667Z,76.77
2023-02-01T20:31:05.762Z,76.79
2023-02-01T20:33:34.557Z,76.96
2023-02-01T20:36:02.885Z,77.14
2023-02-01T20:38:30.907Z,77.27
2023-02-01T20:41:07.275Z,77.27
2023-02-01T20:43:36.055Z,77.25
2023-02-01T20:46:04.554Z,77.66
2023-02-01T20:48:33.215Z,77.88
2023-02-01T20:51:01.458Z,78.10
2023-02-01T20:53:30.492Z,78.12
2023-02-01T20:55:59.581Z,78.11
2023-02-01T20:58:28.064Z,77.96
2023-02-01T21:00:56.542Z,78.11
2023-02-01T21:03:24.732Z,78.22
2023-02-01T21:05:55.101Z,78.04
2023-02-01T21:08:23.419Z,77.81
2023-02-01T21:11:00.432Z,77.72
2023-02-01T21:13:30.724Z,77.71
2023-02-01T21:15:59.168Z,77.67
2023-02-01T21:18:27.484Z,77.70
2023-02-01T21:20:55.859Z,77.69
2023-02-01T21:23:23.897Z,77.60
2023-02-01T21:25:51.907Z,77.46
2023-02-01T21:28:19.935Z,77.46
2023-02-01T21:30:47.958Z,77.25
2023-02-01T21:33:16.010Z,77.18
2023-02-01T21:35:44.088Z,76.99
2023-02-01T21:38:12.438Z,76.79
2023-02-01T21:40:40.524Z,76.99
2023-02-01T21:43:08.612Z,77.05
2023-02-01T21:45:38.294Z,76.85
2023-02-01T21:48:07.809Z,76.74
2023-02-01T21:50:36.318Z,76.96
2023-02-01T21:53:05.225Z,76.81
2023-02-01T21:55:33.254Z,76.95
2023-02-01T21:58:01.322Z,77.02
2023-02-01T22:00:29.389Z,76.96
2023-02-01T22:02:57.572Z,76.89
2023-02-01T22:05:25.928Z,76.93
2023-02-01T22:07:54.312Z,76.55
2023-02-01T22:10:24.219Z,76.61
2023-02-01T22:12:52.402Z,76.34
2023-02-01T22:15:20.571Z,76.53
2023-02-01T22:17:48.538Z,76.51
2023-02-01T22:20:17.140Z,76.42
2023-02-01T22:22:48.470Z,76.29
2023-02-01T22:25:16.594Z,76.36
2023-02-01T22:28:32.365Z,76.58
2023-02-01T22:30:32.683Z,76.64
2023-02-01T22:33:00.723Z,76.94
2023-02-01T22:35:29.610Z,76.80
2023-02-01T22:37:57.784Z,76.72
2023-02-01T22:40:25.729Z,76.36
2023-02-01T22:42:53.714Z,76.12
2023-02-01T22:45:22.461Z,76.28
2023-02-01T22:47:50.767Z,76.39
2023-02-01T22:50:18.835Z,76.46
2023-02-01T22:52:47.004Z,76.26
2023-02-01T22:55:15.090Z,76.61
2023-02-01T22:57:43.019Z,76.72
2023-02-01T23:00:11.990Z,76.72
2023-02-01T23:02:43.543Z,76.72
2023-02-01T23:05:11.775Z,76.81
2023-02-01T23:07:39.928Z,76.97
2023-02-01T23:10:09.918Z,77.17
2023-02-01T23:12:37.900Z,77.39
2023-02-01T23:15:06.850Z,77.34
2023-02-01T23:17:36.088Z,77.39
2023-02-01T23:20:09.360Z,77.31
2023-02-01T23:22:37.350Z,77.45
2023-02-01T23:25:06.106Z,77.25
2023-02-01T23:27:34.204Z,77.25
2023-02-01T23:30:03.373Z,77.38
2023-02-01T23:32:33.545Z,77.49
2023-02-01T23:35:02.286Z,77.34
2023-02-01T23:37:30.766Z,77.73
2023-02-01T23:39:58.869Z,77.73
2023-02-01T23:42:26.977Z,77.71
2023-02-01T23:44:55.203Z,77.68
2023-02-01T23:47:23.581Z,77.63
2023-02-01T23:49:51.651Z,77.66
2023-02-01T23:52:19.727Z,77.85
2023-02-01T23:54:48.031Z,77.93
2023-02-01T23:57:16.169Z,78.00
2023-02-01T23:59:44.239Z,78.16
